sensor_id;sensor_type;location;lat;lon;timestamp;P1;durP1;ratioP1;P2;durP2;ratioP2
8556;SDS011;4316;53.840;10.762;2023-07-20T00:00:29;1.00;;;1.00;;
8556;SDS011;4316;53.840;10.762;2023-07-20T00:03:09;1.23;;;1.10;;
8556;SDS011;4316;53.840;10.762;2023-07-20T00:05:42;2.20;;;0.97;;
8556;SDS011;4316;53.840;10.762;2023-07-20T00:08:09;2.50;;;1.40;;
8556;SDS011;4316;53.840;10.762;2023-07-20T00:10:34;1.03;;;0.93;;
8556;SDS011;4316;53.840;10.762;2023-07-20T00:13:00;1.50;;;0.93;;
8556;SDS011;4316;53.840;10.762;2023-07-20T00:15:26;0.87;;;0.87;;
8556;SDS011;4316;53.840;10.762;2023-07-20T00:17:52;1.10;;;1.00;;
8556;SDS011;4316;53.840;10.762;2023-07-20T00:20:17;2.43;;;1.47;;
8556;SDS011;4316;53.840;10.762;2023-07-20T00:22:43;1.07;;;1.00;;
8556;SDS011;4316;53.840;10.762;2023-07-20T00:25:09;2.17;;;1.20;;
8556;SDS011;4316;53.840;10.762;2023-07-20T00:27:36;5.60;;;1.40;;
8556;SDS011;4316;53.840;10.762;2023-07-20T00:30:03;1.80;;;1.10;;
8556;SDS011;4316;53.840;10.762;2023-07-20T00:32:30;7.10;;;1.30;;
8556;SDS011;4316;53.840;10.762;2023-07-20T00:34:56;2.37;;;1.50;;
8556;SDS011;4316;53.840;10.762;2023-07-20T00:37:22;2.43;;;1.43;;
8556;SDS011;4316;53.840;10.762;2023-07-20T00:39:47;1.93;;;1.20;;
8556;SDS011;4316;53.840;10.762;2023-07-20T00:42:13;1.00;;;1.00;;
8556;SDS011;4316;53.840;10.762;2023-07-20T00:44:39;1.20;;;1.10;;
8556;SDS011;4316;53.840;10.762;2023-07-20T00:47:05;1.40;;;1.30;;
8556;SDS011;4316;53.840;10.762;2023-07-20T00:49:32;1.93;;;1.27;;
8556;SDS011;4316;53.840;10.762;2023-07-20T00:51:59;1.40;;;1.30;;
8556;SDS011;4316;53.840;10.762;2023-07-20T00:54:26;3.57;;;1.30;;
8556;SDS011;4316;53.840;10.762;2023-07-20T00:56:53;1.13;;;1.13;;
8556;SDS011;4316;53.840;10.762;2023-07-20T00:59:19;2.37;;;1.20;;
8556;SDS011;4316;53.840;10.762;2023-07-20T01:01:46;1.67;;;1.47;;
8556;SDS011;4316;53.840;10.762;2023-07-20T01:04:12;5.00;;;1.30;;
8556;SDS011;4316;53.840;10.762;2023-07-20T01:09:09;4.73;;;1.53;;
8556;SDS011;4316;53.840;10.762;2023-07-20T01:14:19;1.73;;;1.20;;
8556;SDS011;4316;53.840;10.762;2023-07-20T01:16:45;1.50;;;1.40;;
8556;SDS011;4316;53.840;10.762;2023-07-20T01:19:13;7.20;;;1.57;;
8556;SDS011;4316;53.840;10.762;2023-07-20T01:32:40;1.77;;;1.50;;
8556;SDS011;4316;53.840;10.762;2023-07-20T01:35:08;1.40;;;1.30;;
8556;SDS011;4316;53.840;10.762;2023-07-20T01:37:39;1.40;;;1.30;;
8556;SDS011;4316;53.840;10.762;2023-07-20T01:40:08;2.17;;;1.40;;
8556;SDS011;4316;53.840;10.762;2023-07-20T01:42:37;5.83;;;1.17;;
8556;SDS011;4316;53.840;10.762;2023-07-20T01:45:02;3.27;;;1.30;;
8556;SDS011;4316;53.840;10.762;2023-07-20T01:47:28;3.60;;;1.40;;
8556;SDS011;4316;53.840;10.762;2023-07-20T01:49:54;1.13;;;1.10;;
8556;SDS011;4316;53.840;10.762;2023-07-20T01:52:20;1.10;;;1.10;;
8556;SDS011;4316;53.840;10.762;2023-07-20T01:54:45;3.30;;;1.13;;
8556;SDS011;4316;53.840;10.762;2023-07-20T01:57:11;1.93;;;1.20;;
8556;SDS011;4316;53.840;10.762;2023-07-20T01:59:37;1.57;;;1.30;;
8556;SDS011;4316;53.840;10.762;2023-07-20T02:02:02;2.07;;;1.43;;
8556;SDS011;4316;53.840;10.762;2023-07-20T02:04:28;3.77;;;1.23;;
8556;SDS011;4316;53.840;10.762;2023-07-20T02:06:54;2.00;;;1.20;;
8556;SDS011;4316;53.840;10.762;2023-07-20T02:09:21;6.63;;;1.40;;
8556;SDS011;4316;53.840;10.762;2023-07-20T02:11:46;5.43;;;1.40;;
8556;SDS011;4316;53.840;10.762;2023-07-20T02:14:13;1.30;;;1.20;;
8556;SDS011;4316;53.840;10.762;2023-07-20T02:16:38;2.80;;;1.40;;
8556;SDS011;4316;53.840;10.762;2023-07-20T02:19:04;2.13;;;1.43;;
8556;SDS011;4316;53.840;10.762;2023-07-20T02:21:33;3.83;;;1.67;;
8556;SDS011;4316;53.840;10.762;2023-07-20T02:23:58;6.23;;;1.63;;
8556;SDS011;4316;53.840;10.762;2023-07-20T02:26:25;4.73;;;1.50;;
8556;SDS011;4316;53.840;10.762;2023-07-20T02:28:50;3.60;;;1.60;;
8556;SDS011;4316;53.840;10.762;2023-07-20T02:31:16;3.23;;;1.40;;
8556;SDS011;4316;53.840;10.762;2023-07-20T02:33:42;8.63;;;1.70;;
8556;SDS011;4316;53.840;10.762;2023-07-20T02:36:08;3.23;;;1.20;;
8556;SDS011;4316;53.840;10.762;2023-07-20T02:38:34;1.53;;;1.43;;
8556;SDS011;4316;53.840;10.762;2023-07-20T02:40:59;2.37;;;1.37;;
8556;SDS011;4316;53.840;10.762;2023-07-20T02:43:25;5.50;;;1.20;;
8556;SDS011;4316;53.840;10.762;2023-07-20T02:45:51;2.70;;;1.30;;
8556;SDS011;4316;53.840;10.762;2023-07-20T02:48:18;1.77;;;1.63;;
8556;SDS011;4316;53.840;10.762;2023-07-20T02:50:44;1.33;;;1.23;;
8556;SDS011;4316;53.840;10.762;2023-07-20T02:53:09;2.37;;;1.60;;
8556;SDS011;4316;53.840;10.762;2023-07-20T02:55:35;3.70;;;1.37;;
8556;SDS011;4316;53.840;10.762;2023-07-20T02:58:01;1.77;;;1.60;;
8556;SDS011;4316;53.840;10.762;2023-07-20T03:00:27;1.70;;;1.40;;
8556;SDS011;4316;53.840;10.762;2023-07-20T03:02:53;3.80;;;1.40;;
8556;SDS011;4316;53.840;10.762;2023-07-20T03:05:21;3.07;;;1.57;;
8556;SDS011;4316;53.840;10.762;2023-07-20T03:07:51;4.17;;;1.90;;
8556;SDS011;4316;53.840;10.762;2023-07-20T03:10:16;4.13;;;1.50;;
8556;SDS011;4316;53.840;10.762;2023-07-20T03:12:42;1.60;;;1.50;;
8556;SDS011;4316;53.840;10.762;2023-07-20T03:15:09;2.17;;;1.40;;
8556;SDS011;4316;53.840;10.762;2023-07-20T03:17:35;1.60;;;1.50;;
8556;SDS011;4316;53.840;10.762;2023-07-20T03:20:01;3.67;;;1.60;;
8556;SDS011;4316;53.840;10.762;2023-07-20T03:22:28;5.80;;;2.00;;
8556;SDS011;4316;53.840;10.762;2023-07-20T03:24:54;3.97;;;1.77;;
8556;SDS011;4316;53.840;10.762;2023-07-20T03:27:20;4.40;;;1.60;;
8556;SDS011;4316;53.840;10.762;2023-07-20T03:29:46;2.87;;;1.90;;
8556;SDS011;4316;53.840;10.762;2023-07-20T03:32:11;2.37;;;1.80;;
8556;SDS011;4316;53.840;10.762;2023-07-20T03:34:37;5.63;;;2.10;;
8556;SDS011;4316;53.840;10.762;2023-07-20T03:37:03;4.17;;;1.67;;
8556;SDS011;4316;53.840;10.762;2023-07-20T03:39:30;2.57;;;1.60;;
8556;SDS011;4316;53.840;10.762;2023-07-20T03:41:55;2.10;;;1.50;;
8556;SDS011;4316;53.840;10.762;2023-07-20T03:44:23;3.63;;;2.13;;
8556;SDS011;4316;53.840;10.762;2023-07-20T03:46:49;5.43;;;1.77;;
8556;SDS011;4316;53.840;10.762;2023-07-20T03:49:15;3.47;;;2.10;;
8556;SDS011;4316;53.840;10.762;2023-07-20T03:51:41;1.90;;;1.77;;
8556;SDS011;4316;53.840;10.762;2023-07-20T03:54:06;4.00;;;1.87;;
8556;SDS011;4316;53.840;10.762;2023-07-20T03:56:33;5.80;;;2.17;;
8556;SDS011;4316;53.840;10.762;2023-07-20T03:59:00;2.50;;;1.70;;
8556;SDS011;4316;53.840;10.762;2023-07-20T04:01:27;11.40;;;2.00;;
8556;SDS011;4316;53.840;10.762;2023-07-20T04:03:53;3.17;;;1.90;;
8556;SDS011;4316;53.840;10.762;2023-07-20T04:06:18;3.90;;;1.77;;
8556;SDS011;4316;53.840;10.762;2023-07-20T04:08:44;1.53;;;1.43;;
8556;SDS011;4316;53.840;10.762;2023-07-20T04:11:12;4.90;;;1.53;;
8556;SDS011;4316;53.840;10.762;2023-07-20T04:13:38;2.23;;;1.70;;
8556;SDS011;4316;53.840;10.762;2023-07-20T04:16:04;6.33;;;1.70;;
8556;SDS011;4316;53.840;10.762;2023-07-20T04:18:30;1.50;;;1.40;;
8556;SDS011;4316;53.840;10.762;2023-07-20T04:20:56;3.90;;;1.80;;
8556;SDS011;4316;53.840;10.762;2023-07-20T04:23:22;2.07;;;1.73;;
8556;SDS011;4316;53.840;10.762;2023-07-20T04:25:49;4.17;;;1.57;;
8556;SDS011;4316;53.840;10.762;2023-07-20T04:28:16;1.60;;;1.50;;
8556;SDS011;4316;53.840;10.762;2023-07-20T04:30:49;2.97;;;1.80;;
8556;SDS011;4316;53.840;10.762;2023-07-20T04:33:18;2.77;;;1.80;;
8556;SDS011;4316;53.840;10.762;2023-07-20T04:35:49;2.63;;;1.60;;
8556;SDS011;4316;53.840;10.762;2023-07-20T04:38:20;4.87;;;1.73;;
8556;SDS011;4316;53.840;10.762;2023-07-20T04:40:51;5.20;;;1.67;;
8556;SDS011;4316;53.840;10.762;2023-07-20T04:43:17;3.93;;;1.60;;
8556;SDS011;4316;53.840;10.762;2023-07-20T04:45:44;2.70;;;1.60;;
8556;SDS011;4316;53.840;10.762;2023-07-20T04:48:12;8.33;;;1.83;;
8556;SDS011;4316;53.840;10.762;2023-07-20T04:50:45;8.43;;;1.90;;
8556;SDS011;4316;53.840;10.762;2023-07-20T04:53:12;1.92;;;1.48;;
8556;SDS011;4316;53.840;10.762;2023-07-20T04:55:39;5.80;;;1.70;;
8556;SDS011;4316;53.840;10.762;2023-07-20T04:58:06;5.17;;;1.97;;
8556;SDS011;4316;53.840;10.762;2023-07-20T05:00:34;2.13;;;1.70;;
8556;SDS011;4316;53.840;10.762;2023-07-20T05:03:00;1.63;;;1.50;;
8556;SDS011;4316;53.840;10.762;2023-07-20T05:05:26;3.30;;;1.80;;
8556;SDS011;4316;53.840;10.762;2023-07-20T05:07:52;3.40;;;1.77;;
8556;SDS011;4316;53.840;10.762;2023-07-20T05:10:17;6.53;;;2.50;;
8556;SDS011;4316;53.840;10.762;2023-07-20T05:12:43;1.90;;;1.80;;
8556;SDS011;4316;53.840;10.762;2023-07-20T05:15:09;4.30;;;2.20;;
8556;SDS011;4316;53.840;10.762;2023-07-20T05:17:37;4.87;;;2.27;;
8556;SDS011;4316;53.840;10.762;2023-07-20T05:20:03;6.40;;;2.57;;
8556;SDS011;4316;53.840;10.762;2023-07-20T05:22:32;2.90;;;2.03;;
8556;SDS011;4316;53.840;10.762;2023-07-20T05:24:58;2.50;;;2.20;;
8556;SDS011;4316;53.840;10.762;2023-07-20T05:27:24;3.10;;;1.83;;
8556;SDS011;4316;53.840;10.762;2023-07-20T05:29:50;4.30;;;1.93;;
8556;SDS011;4316;53.840;10.762;2023-07-20T05:32:16;4.13;;;2.10;;
8556;SDS011;4316;53.840;10.762;2023-07-20T05:34:42;3.03;;;2.33;;
8556;SDS011;4316;53.840;10.762;2023-07-20T05:37:08;2.00;;;1.90;;
8556;SDS011;4316;53.840;10.762;2023-07-20T05:39:33;4.00;;;2.20;;
8556;SDS011;4316;53.840;10.762;2023-07-20T05:41:59;4.37;;;2.50;;
8556;SDS011;4316;53.840;10.762;2023-07-20T05:44:25;3.93;;;2.27;;
8556;SDS011;4316;53.840;10.762;2023-07-20T05:46:50;2.23;;;1.70;;
8556;SDS011;4316;53.840;10.762;2023-07-20T05:49:16;5.97;;;1.70;;
8556;SDS011;4316;53.840;10.762;2023-07-20T05:51:42;5.67;;;1.80;;
8556;SDS011;4316;53.840;10.762;2023-07-20T05:54:08;2.90;;;1.90;;
8556;SDS011;4316;53.840;10.762;2023-07-20T05:56:33;4.07;;;1.90;;
8556;SDS011;4316;53.840;10.762;2023-07-20T05:58:59;6.97;;;1.70;;
8556;SDS011;4316;53.840;10.762;2023-07-20T06:01:25;5.37;;;1.70;;
8556;SDS011;4316;53.840;10.762;2023-07-20T06:03:53;3.80;;;2.23;;
8556;SDS011;4316;53.840;10.762;2023-07-20T06:06:19;1.53;;;1.43;;
8556;SDS011;4316;53.840;10.762;2023-07-20T06:08:46;1.30;;;1.20;;
8556;SDS011;4316;53.840;10.762;2023-07-20T06:11:11;4.07;;;1.20;;
8556;SDS011;4316;53.840;10.762;2023-07-20T06:13:37;4.47;;;1.30;;
8556;SDS011;4316;53.840;10.762;2023-07-20T06:16:03;12.03;;;1.37;;
8556;SDS011;4316;53.840;10.762;2023-07-20T06:18:29;1.63;;;1.07;;
8556;SDS011;4316;53.840;10.762;2023-07-20T06:20:56;3.50;;;1.40;;
8556;SDS011;4316;53.840;10.762;2023-07-20T06:23:22;2.73;;;1.10;;
8556;SDS011;4316;53.840;10.762;2023-07-20T06:25:48;5.30;;;1.00;;
8556;SDS011;4316;53.840;10.762;2023-07-20T06:28:14;3.70;;;1.33;;
8556;SDS011;4316;53.840;10.762;2023-07-20T06:30:39;1.00;;;0.70;;
8556;SDS011;4316;53.840;10.762;2023-07-20T06:33:05;5.20;;;1.10;;
8556;SDS011;4316;53.840;10.762;2023-07-20T06:35:31;1.23;;;0.90;;
8556;SDS011;4316;53.840;10.762;2023-07-20T06:37:57;3.27;;;1.00;;
8556;SDS011;4316;53.840;10.762;2023-07-20T06:40:25;2.47;;;1.10;;
8556;SDS011;4316;53.840;10.762;2023-07-20T06:42:51;3.97;;;1.10;;
8556;SDS011;4316;53.840;10.762;2023-07-20T06:45:17;2.70;;;0.80;;
8556;SDS011;4316;53.840;10.762;2023-07-20T06:47:43;1.93;;;0.90;;
8556;SDS011;4316;53.840;10.762;2023-07-20T06:50:09;1.80;;;1.07;;
8556;SDS011;4316;53.840;10.762;2023-07-20T06:52:35;2.47;;;0.90;;
8556;SDS011;4316;53.840;10.762;2023-07-20T06:55:01;3.88;;;1.20;;
8556;SDS011;4316;53.840;10.762;2023-07-20T06:57:27;2.85;;;1.20;;
8556;SDS011;4316;53.840;10.762;2023-07-20T06:59:54;1.30;;;0.93;;
8556;SDS011;4316;53.840;10.762;2023-07-20T07:02:20;3.60;;;1.00;;
8556;SDS011;4316;53.840;10.762;2023-07-20T07:04:46;2.28;;;1.17;;
8556;SDS011;4316;53.840;10.762;2023-07-20T07:07:14;2.08;;;1.08;;
8556;SDS011;4316;53.840;10.762;2023-07-20T07:09:40;2.63;;;1.10;;
8556;SDS011;4316;53.840;10.762;2023-07-20T07:12:06;2.95;;;1.33;;
8556;SDS011;4316;53.840;10.762;2023-07-20T07:14:33;3.22;;;1.15;;
8556;SDS011;4316;53.840;10.762;2023-07-20T07:16:58;3.70;;;1.70;;
8556;SDS011;4316;53.840;10.762;2023-07-20T07:19:25;2.03;;;1.35;;
8556;SDS011;4316;53.840;10.762;2023-07-20T07:21:50;5.85;;;1.15;;
8556;SDS011;4316;53.840;10.762;2023-07-20T07:24:16;4.50;;;1.38;;
8556;SDS011;4316;53.840;10.762;2023-07-20T07:26:42;7.82;;;1.40;;
8556;SDS011;4316;53.840;10.762;2023-07-20T07:29:08;1.50;;;0.80;;
8556;SDS011;4316;53.840;10.762;2023-07-20T07:31:34;2.78;;;1.10;;
8556;SDS011;4316;53.840;10.762;2023-07-20T07:34:01;1.30;;;1.23;;
8556;SDS011;4316;53.840;10.762;2023-07-20T07:36:28;3.22;;;1.10;;
8556;SDS011;4316;53.840;10.762;2023-07-20T07:38:53;2.17;;;1.10;;
8556;SDS011;4316;53.840;10.762;2023-07-20T07:41:19;3.15;;;1.13;;
8556;SDS011;4316;53.840;10.762;2023-07-20T07:43:47;2.75;;;1.55;;
8556;SDS011;4316;53.840;10.762;2023-07-20T07:46:13;2.97;;;1.20;;
8556;SDS011;4316;53.840;10.762;2023-07-20T07:48:39;1.40;;;1.30;;
8556;SDS011;4316;53.840;10.762;2023-07-20T07:51:05;3.22;;;1.40;;
8556;SDS011;4316;53.840;10.762;2023-07-20T07:53:31;3.10;;;1.38;;
8556;SDS011;4316;53.840;10.762;2023-07-20T07:55:58;1.65;;;1.17;;
8556;SDS011;4316;53.840;10.762;2023-07-20T07:58:23;2.00;;;1.33;;
8556;SDS011;4316;53.840;10.762;2023-07-20T08:00:49;3.80;;;1.50;;
8556;SDS011;4316;53.840;10.762;2023-07-20T08:03:15;2.95;;;1.40;;
8556;SDS011;4316;53.840;10.762;2023-07-20T08:05:41;4.18;;;1.75;;
8556;SDS011;4316;53.840;10.762;2023-07-20T08:08:07;3.10;;;1.30;;
8556;SDS011;4316;53.840;10.762;2023-07-20T08:10:33;4.18;;;1.42;;
8556;SDS011;4316;53.840;10.762;2023-07-20T08:12:59;3.40;;;1.17;;
8556;SDS011;4316;53.840;10.762;2023-07-20T08:15:25;3.35;;;1.60;;
8556;SDS011;4316;53.840;10.762;2023-07-20T08:17:51;4.13;;;1.60;;
8556;SDS011;4316;53.840;10.762;2023-07-20T08:20:17;3.47;;;1.60;;
8556;SDS011;4316;53.840;10.762;2023-07-20T08:22:43;5.68;;;1.50;;
8556;SDS011;4316;53.840;10.762;2023-07-20T08:25:09;4.70;;;1.55;;
8556;SDS011;4316;53.840;10.762;2023-07-20T08:27:36;6.63;;;1.85;;
8556;SDS011;4316;53.840;10.762;2023-07-20T08:30:02;1.92;;;1.42;;
8556;SDS011;4316;53.840;10.762;2023-07-20T08:32:29;3.17;;;1.77;;
8556;SDS011;4316;53.840;10.762;2023-07-20T08:34:55;5.47;;;1.80;;
8556;SDS011;4316;53.840;10.762;2023-07-20T08:37:21;2.78;;;1.58;;
8556;SDS011;4316;53.840;10.762;2023-07-20T08:39:47;4.15;;;1.90;;
8556;SDS011;4316;53.840;10.762;2023-07-20T08:42:13;4.53;;;1.88;;
8556;SDS011;4316;53.840;10.762;2023-07-20T08:44:39;7.32;;;1.73;;
8556;SDS011;4316;53.840;10.762;2023-07-20T08:47:08;5.70;;;2.15;;
8556;SDS011;4316;53.840;10.762;2023-07-20T08:49:34;1.30;;;1.20;;
8556;SDS011;4316;53.840;10.762;2023-07-20T08:52:01;2.35;;;1.60;;
8556;SDS011;4316;53.840;10.762;2023-07-20T08:54:29;3.42;;;1.70;;
8556;SDS011;4316;53.840;10.762;2023-07-20T08:56:58;4.30;;;1.52;;
8556;SDS011;4316;53.840;10.762;2023-07-20T08:59:28;11.43;;;1.67;;
8556;SDS011;4316;53.840;10.762;2023-07-20T09:01:55;4.13;;;1.60;;
8556;SDS011;4316;53.840;10.762;2023-07-20T09:04:23;3.00;;;1.50;;
8556;SDS011;4316;53.840;10.762;2023-07-20T09:06:49;1.60;;;1.23;;
8556;SDS011;4316;53.840;10.762;2023-07-20T09:09:16;1.38;;;1.00;;
8556;SDS011;4316;53.840;10.762;2023-07-20T09:11:41;4.55;;;1.48;;
8556;SDS011;4316;53.840;10.762;2023-07-20T09:14:08;2.35;;;1.45;;
8556;SDS011;4316;53.840;10.762;2023-07-20T09:19:17;4.60;;;1.80;;
8556;SDS011;4316;53.840;10.762;2023-07-20T09:21:49;4.97;;;1.52;;
8556;SDS011;4316;53.840;10.762;2023-07-20T09:24:19;6.65;;;1.88;;
8556;SDS011;4316;53.840;10.762;2023-07-20T09:26:47;7.10;;;2.08;;
8556;SDS011;4316;53.840;10.762;2023-07-20T09:29:13;3.40;;;1.98;;
8556;SDS011;4316;53.840;10.762;2023-07-20T09:31:43;6.10;;;1.83;;
8556;SDS011;4316;53.840;10.762;2023-07-20T09:34:28;5.32;;;1.83;;
8556;SDS011;4316;53.840;10.762;2023-07-20T09:36:57;5.20;;;1.83;;
8556;SDS011;4316;53.840;10.762;2023-07-20T09:39:24;3.05;;;1.85;;
8556;SDS011;4316;53.840;10.762;2023-07-20T09:41:50;3.78;;;1.95;;
8556;SDS011;4316;53.840;10.762;2023-07-20T09:44:17;5.97;;;1.98;;
8556;SDS011;4316;53.840;10.762;2023-07-20T09:46:44;5.68;;;1.65;;
8556;SDS011;4316;53.840;10.762;2023-07-20T09:49:11;4.88;;;1.58;;
8556;SDS011;4316;53.840;10.762;2023-07-20T09:51:37;3.55;;;1.38;;
8556;SDS011;4316;53.840;10.762;2023-07-20T09:54:03;5.53;;;1.38;;
8556;SDS011;4316;53.840;10.762;2023-07-20T09:56:29;3.63;;;1.13;;
8556;SDS011;4316;53.840;10.762;2023-07-20T09:58:56;2.42;;;1.55;;
8556;SDS011;4316;53.840;10.762;2023-07-20T10:01:22;5.40;;;1.60;;
8556;SDS011;4316;53.840;10.762;2023-07-20T10:03:50;4.40;;;1.48;;
8556;SDS011;4316;53.840;10.762;2023-07-20T10:06:20;3.67;;;1.55;;
8556;SDS011;4316;53.840;10.762;2023-07-20T10:08:49;3.97;;;1.25;;
8556;SDS011;4316;53.840;10.762;2023-07-20T10:11:18;6.97;;;1.48;;
8556;SDS011;4316;53.840;10.762;2023-07-20T10:13:47;7.72;;;1.50;;
8556;SDS011;4316;53.840;10.762;2023-07-20T10:16:22;3.08;;;1.50;;
8556;SDS011;4316;53.840;10.762;2023-07-20T10:19:07;1.77;;;1.35;;
8556;SDS011;4316;53.840;10.762;2023-07-20T10:21:37;3.35;;;1.30;;
8556;SDS011;4316;53.840;10.762;2023-07-20T10:24:07;14.27;;;1.80;;
8556;SDS011;4316;53.840;10.762;2023-07-20T10:26:34;3.35;;;1.48;;
8556;SDS011;4316;53.840;10.762;2023-07-20T10:29:00;3.58;;;1.50;;
8556;SDS011;4316;53.840;10.762;2023-07-20T10:31:26;8.35;;;1.35;;
8556;SDS011;4316;53.840;10.762;2023-07-20T10:33:54;5.10;;;1.80;;
8556;SDS011;4316;53.840;10.762;2023-07-20T10:36:25;6.25;;;1.27;;
8556;SDS011;4316;53.840;10.762;2023-07-20T10:38:56;3.13;;;1.50;;
8556;SDS011;4316;53.840;10.762;2023-07-20T10:43:59;3.10;;;1.60;;
8556;SDS011;4316;53.840;10.762;2023-07-20T10:46:41;5.32;;;1.80;;
8556;SDS011;4316;53.840;10.762;2023-07-20T10:49:09;7.88;;;1.50;;
8556;SDS011;4316;53.840;10.762;2023-07-20T10:51:39;3.58;;;1.55;;
8556;SDS011;4316;53.840;10.762;2023-07-20T10:56:41;3.03;;;0.90;;
8556;SDS011;4316;53.840;10.762;2023-07-20T10:59:20;11.27;;;4.07;;
8556;SDS011;4316;53.840;10.762;2023-07-20T11:02:07;3.78;;;1.52;;
8556;SDS011;4316;53.840;10.762;2023-07-20T11:04:40;1.02;;;0.70;;
8556;SDS011;4316;53.840;10.762;2023-07-20T11:07:06;3.10;;;0.90;;
8556;SDS011;4316;53.840;10.762;2023-07-20T11:09:35;0.70;;;0.68;;
8556;SDS011;4316;53.840;10.762;2023-07-20T11:12:12;1.75;;;0.80;;
8556;SDS011;4316;53.840;10.762;2023-07-20T11:14:55;3.07;;;0.90;;
8556;SDS011;4316;53.840;10.762;2023-07-20T11:17:28;2.75;;;0.90;;
8556;SDS011;4316;53.840;10.762;2023-07-20T11:19:56;1.23;;;0.77;;
8556;SDS011;4316;53.840;10.762;2023-07-20T11:22:23;3.13;;;0.77;;
8556;SDS011;4316;53.840;10.762;2023-07-20T11:24:49;1.98;;;0.85;;
8556;SDS011;4316;53.840;10.762;2023-07-20T11:27:15;5.07;;;1.13;;
8556;SDS011;4316;53.840;10.762;2023-07-20T11:29:41;2.83;;;0.80;;
8556;SDS011;4316;53.840;10.762;2023-07-20T11:32:07;2.63;;;0.93;;
8556;SDS011;4316;53.840;10.762;2023-07-20T11:34:34;3.33;;;1.10;;
8556;SDS011;4316;53.840;10.762;2023-07-20T11:37:00;2.55;;;1.52;;
8556;SDS011;4316;53.840;10.762;2023-07-20T11:39:27;3.33;;;0.98;;
8556;SDS011;4316;53.840;10.762;2023-07-20T11:41:55;1.63;;;1.00;;
8556;SDS011;4316;53.840;10.762;2023-07-20T11:44:22;1.08;;;0.80;;
8556;SDS011;4316;53.840;10.762;2023-07-20T11:47:06;1.67;;;0.52;;
8556;SDS011;4316;53.840;10.762;2023-07-20T11:49:37;0.60;;;0.40;;
8556;SDS011;4316;53.840;10.762;2023-07-20T11:52:07;1.58;;;0.57;;
8556;SDS011;4316;53.840;10.762;2023-07-20T11:54:35;0.55;;;0.50;;
8556;SDS011;4316;53.840;10.762;2023-07-20T11:57:02;1.93;;;0.70;;
8556;SDS011;4316;53.840;10.762;2023-07-20T11:59:30;2.53;;;0.63;;
8556;SDS011;4316;53.840;10.762;2023-07-20T12:01:56;6.20;;;0.57;;
8556;SDS011;4316;53.840;10.762;2023-07-20T12:04:29;0.50;;;0.50;;
8556;SDS011;4316;53.840;10.762;2023-07-20T12:06:56;1.58;;;0.80;;
8556;SDS011;4316;53.840;10.762;2023-07-20T12:09:22;0.60;;;0.60;;
8556;SDS011;4316;53.840;10.762;2023-07-20T12:11:48;2.30;;;0.98;;
8556;SDS011;4316;53.840;10.762;2023-07-20T12:14:15;1.63;;;0.82;;
8556;SDS011;4316;53.840;10.762;2023-07-20T12:16:41;1.85;;;0.85;;
8556;SDS011;4316;53.840;10.762;2023-07-20T12:19:11;2.45;;;0.88;;
8556;SDS011;4316;53.840;10.762;2023-07-20T12:21:39;1.38;;;0.75;;
8556;SDS011;4316;53.840;10.762;2023-07-20T12:24:06;1.33;;;0.82;;
8556;SDS011;4316;53.840;10.762;2023-07-20T12:26:34;1.20;;;1.08;;
8556;SDS011;4316;53.840;10.762;2023-07-20T12:29:00;4.93;;;1.00;;
8556;SDS011;4316;53.840;10.762;2023-07-20T12:31:28;7.70;;;1.08;;
8556;SDS011;4316;53.840;10.762;2023-07-20T12:33:55;0.60;;;0.60;;
8556;SDS011;4316;53.840;10.762;2023-07-20T12:36:22;3.50;;;0.60;;
8556;SDS011;4316;53.840;10.762;2023-07-20T12:38:48;2.20;;;1.00;;
8556;SDS011;4316;53.840;10.762;2023-07-20T12:41:14;0.70;;;0.70;;
8556;SDS011;4316;53.840;10.762;2023-07-20T12:43:40;0.77;;;0.77;;
8556;SDS011;4316;53.840;10.762;2023-07-20T12:46:07;0.63;;;0.63;;
8556;SDS011;4316;53.840;10.762;2023-07-20T12:48:35;3.35;;;0.73;;
8556;SDS011;4316;53.840;10.762;2023-07-20T12:51:05;0.60;;;0.60;;
8556;SDS011;4316;53.840;10.762;2023-07-20T12:53:32;1.17;;;0.70;;
8556;SDS011;4316;53.840;10.762;2023-07-20T12:55:58;2.03;;;0.40;;
8556;SDS011;4316;53.840;10.762;2023-07-20T12:58:24;0.95;;;0.70;;
8556;SDS011;4316;53.840;10.762;2023-07-20T13:00:51;1.02;;;0.68;;
8556;SDS011;4316;53.840;10.762;2023-07-20T13:03:16;1.83;;;0.75;;
8556;SDS011;4316;53.840;10.762;2023-07-20T13:05:44;0.90;;;0.70;;
8556;SDS011;4316;53.840;10.762;2023-07-20T13:08:14;1.58;;;0.77;;
8556;SDS011;4316;53.840;10.762;2023-07-20T13:10:40;1.60;;;0.90;;
8556;SDS011;4316;53.840;10.762;2023-07-20T13:13:06;1.75;;;0.90;;
8556;SDS011;4316;53.840;10.762;2023-07-20T13:15:40;2.45;;;1.17;;
8556;SDS011;4316;53.840;10.762;2023-07-20T13:18:07;1.00;;;0.93;;
8556;SDS011;4316;53.840;10.762;2023-07-20T13:20:33;2.58;;;1.13;;
8556;SDS011;4316;53.840;10.762;2023-07-20T13:22:58;2.47;;;1.00;;
8556;SDS011;4316;53.840;10.762;2023-07-20T13:25:24;1.38;;;0.75;;
8556;SDS011;4316;53.840;10.762;2023-07-20T13:27:50;5.30;;;1.17;;
8556;SDS011;4316;53.840;10.762;2023-07-20T13:30:16;1.85;;;0.80;;
8556;SDS011;4316;53.840;10.762;2023-07-20T13:32:42;6.13;;;1.05;;
8556;SDS011;4316;53.840;10.762;2023-07-20T13:35:09;1.73;;;1.00;;
8556;SDS011;4316;53.840;10.762;2023-07-20T13:37:38;2.10;;;0.75;;
8556;SDS011;4316;53.840;10.762;2023-07-20T13:40:04;5.13;;;0.80;;
8556;SDS011;4316;53.840;10.762;2023-07-20T13:42:30;0.57;;;0.57;;
8556;SDS011;4316;53.840;10.762;2023-07-20T13:44:57;2.10;;;1.00;;
8556;SDS011;4316;53.840;10.762;2023-07-20T13:47:23;8.32;;;1.00;;
8556;SDS011;4316;53.840;10.762;2023-07-20T13:49:49;1.83;;;0.80;;
8556;SDS011;4316;53.840;10.762;2023-07-20T13:52:15;2.42;;;1.08;;
8556;SDS011;4316;53.840;10.762;2023-07-20T13:54:41;4.75;;;1.58;;
8556;SDS011;4316;53.840;10.762;2023-07-20T13:57:06;2.92;;;1.23;;
8556;SDS011;4316;53.840;10.762;2023-07-20T13:59:32;3.22;;;1.33;;
8556;SDS011;4316;53.840;10.762;2023-07-20T14:01:58;7.22;;;1.75;;
8556;SDS011;4316;53.840;10.762;2023-07-20T14:04:23;2.97;;;1.33;;
8556;SDS011;4316;53.840;10.762;2023-07-20T14:06:49;5.43;;;1.30;;
8556;SDS011;4316;53.840;10.762;2023-07-20T14:09:16;4.25;;;1.02;;
8556;SDS011;4316;53.840;10.762;2023-07-20T14:11:42;2.30;;;0.95;;
8556;SDS011;4316;53.840;10.762;2023-07-20T14:14:07;1.73;;;0.77;;
8556;SDS011;4316;53.840;10.762;2023-07-20T14:16:36;0.93;;;0.70;;
8556;SDS011;4316;53.840;10.762;2023-07-20T14:19:02;8.35;;;1.23;;
8556;SDS011;4316;53.840;10.762;2023-07-20T14:21:30;1.30;;;0.77;;
8556;SDS011;4316;53.840;10.762;2023-07-20T14:23:56;1.80;;;0.85;;
8556;SDS011;4316;53.840;10.762;2023-07-20T14:26:23;3.50;;;0.82;;
8556;SDS011;4316;53.840;10.762;2023-07-20T14:28:48;1.60;;;0.73;;
8556;SDS011;4316;53.840;10.762;2023-07-20T14:31:14;2.50;;;0.90;;
8556;SDS011;4316;53.840;10.762;2023-07-20T14:33:40;0.85;;;0.65;;
8556;SDS011;4316;53.840;10.762;2023-07-20T14:36:06;1.20;;;0.85;;
8556;SDS011;4316;53.840;10.762;2023-07-20T14:38:32;1.67;;;0.80;;
8556;SDS011;4316;53.840;10.762;2023-07-20T14:40:59;1.77;;;0.80;;
8556;SDS011;4316;53.840;10.762;2023-07-20T14:43:25;1.00;;;0.80;;
8556;SDS011;4316;53.840;10.762;2023-07-20T14:45:51;2.17;;;0.80;;
8556;SDS011;4316;53.840;10.762;2023-07-20T14:48:17;1.75;;;0.90;;
8556;SDS011;4316;53.840;10.762;2023-07-20T14:50:42;1.75;;;0.90;;
8556;SDS011;4316;53.840;10.762;2023-07-20T14:53:11;1.80;;;0.95;;
8556;SDS011;4316;53.840;10.762;2023-07-20T14:55:38;2.83;;;1.10;;
8556;SDS011;4316;53.840;10.762;2023-07-20T14:58:03;2.45;;;0.95;;
8556;SDS011;4316;53.840;10.762;2023-07-20T15:00:29;1.95;;;1.15;;
8556;SDS011;4316;53.840;10.762;2023-07-20T15:02:55;4.07;;;0.93;;
8556;SDS011;4316;53.840;10.762;2023-07-20T15:05:22;2.50;;;1.25;;
8556;SDS011;4316;53.840;10.762;2023-07-20T15:07:48;3.33;;;1.00;;
8556;SDS011;4316;53.840;10.762;2023-07-20T15:10:15;4.60;;;1.52;;
8556;SDS011;4316;53.840;10.762;2023-07-20T15:12:40;7.07;;;0.93;;
8556;SDS011;4316;53.840;10.762;2023-07-20T15:15:08;5.07;;;1.23;;
8556;SDS011;4316;53.840;10.762;2023-07-20T15:17:34;1.33;;;1.00;;
8556;SDS011;4316;53.840;10.762;2023-07-20T15:20:04;2.40;;;1.00;;
8556;SDS011;4316;53.840;10.762;2023-07-20T15:22:31;2.17;;;0.90;;